createdAt,value
2017-07-04T00:00:48.719Z,0
2017-07-04T00:01:50.521Z,0
2017-07-04T00:02:52.655Z,0
2017-07-04T00:03:54.099Z,0
2017-07-04T00:04:56.232Z,0
2017-07-04T00:05:57.676Z,0
2017-07-04T00:06:59.173Z,0
2017-07-04T00:08:00.948Z,0
2017-07-04T00:09:03.081Z,0
2017-07-04T00:10:04.545Z,0
2017-07-04T00:11:06.680Z,0
2017-07-04T00:12:08.817Z,0
2017-07-04T00:13:10.615Z,0
2017-07-04T00:14:12.416Z,0
2017-07-04T00:15:13.886Z,0
2017-07-04T00:16:16.018Z,0
2017-07-04T00:17:18.150Z,0
2017-07-04T00:18:19.928Z,0
2017-07-04T00:19:21.037Z,0
2017-07-04T00:20:22.560Z,0
2017-07-04T00:21:24.023Z,0
2017-07-04T00:22:25.824Z,0
2017-07-04T00:23:27.604Z,0
2017-07-04T00:24:29.736Z,0
2017-07-04T00:25:31.869Z,0
2017-07-04T00:26:33.315Z,0
2017-07-04T00:27:34.419Z,0
2017-07-04T00:28:36.552Z,0
2017-07-04T00:29:38.683Z,0
2017-07-04T00:30:40.146Z,0
2017-07-04T00:31:41.924Z,0
2017-07-04T00:32:44.061Z,0
2017-07-04T00:33:45.862Z,0
2017-07-04T00:34:47.998Z,0
2017-07-04T00:35:49.439Z,0
2017-07-04T00:36:51.242Z,0
2017-07-04T00:37:53.038Z,0
2017-07-04T00:38:54.480Z,0
2017-07-04T00:39:55.940Z,0
2017-07-04T00:40:57.384Z,0
2017-07-04T00:41:58.850Z,0
2017-07-04T00:43:00.628Z,0
2017-07-04T00:44:02.761Z,0
2017-07-04T00:45:04.574Z,0
2017-07-04T00:46:06.375Z,0
2017-07-04T00:47:07.816Z,0
2017-07-04T00:48:09.951Z,0
2017-07-04T00:49:11.751Z,0
2017-07-04T00:50:13.214Z,0
2017-07-04T00:51:15.352Z,0
2017-07-04T00:52:17.148Z,0
2017-07-04T00:53:18.612Z,0
2017-07-04T00:54:20.390Z,0
2017-07-04T00:55:22.529Z,0
2017-07-04T00:56:23.999Z,0
2017-07-04T00:57:25.442Z,0
2017-07-04T00:58:26.882Z,0
2017-07-04T00:59:29.023Z,0
2017-07-04T01:00:30.796Z,0
2017-07-04T01:01:32.932Z,0
2017-07-04T01:02:34.379Z,0
2017-07-04T01:03:36.513Z,0
2017-07-04T01:04:37.624Z,0
2017-07-04T01:05:39.758Z,0
2017-07-04T01:06:41.198Z,0
2017-07-04T01:07:42.996Z,0
2017-07-04T01:08:44.109Z,0
2017-07-04T01:09:45.910Z,0
2017-07-04T01:10:47.040Z,0
2017-07-04T01:11:48.840Z,0
2017-07-04T01:12:50.297Z,0
2017-07-04T01:13:52.073Z,0
2017-07-04T01:14:54.206Z,0
2017-07-04T01:15:56.025Z,0
2017-07-04T01:16:57.468Z,0
2017-07-04T01:17:59.267Z,0
2017-07-04T01:19:01.046Z,0
2017-07-04T01:20:02.512Z,0
2017-07-04T01:21:04.647Z,0
2017-07-04T01:22:06.786Z,0
2017-07-04T01:23:08.603Z,0
2017-07-04T01:24:09.731Z,0
2017-07-04T01:25:10.840Z,0
2017-07-04T01:26:12.975Z,0
2017-07-04T01:27:14.756Z,0
2017-07-04T01:28:16.222Z,0
2017-07-04T01:29:17.681Z,0
2017-07-04T01:30:19.480Z,0
2017-07-04T01:31:21.258Z,0
2017-07-04T01:32:23.059Z,0
2017-07-04T01:33:25.193Z,0
2017-07-04T01:34:27.330Z,0
2017-07-04T01:35:29.143Z,0
2017-07-04T01:36:30.606Z,0
2017-07-04T01:37:32.048Z,0
2017-07-04T01:38:33.851Z,0
2017-07-04T01:39:35.984Z,0
2017-07-04T01:40:37.784Z,0
2017-07-04T01:41:38.890Z,0
2017-07-04T01:42:40.359Z,0
2017-07-04T01:43:41.882Z,0
2017-07-04T01:44:43.351Z,0
2017-07-04T01:45:44.815Z,0
2017-07-04T01:46:46.281Z,0
2017-07-04T01:47:47.745Z,0
2017-07-04T01:48:49.876Z,0
2017-07-04T01:49:51.652Z,0
2017-07-04T01:50:53.789Z,0
2017-07-04T01:51:55.922Z,0
2017-07-04T01:52:57.390Z,0
2017-07-04T01:53:59.189Z,0
2017-07-04T01:55:01.325Z,0
2017-07-04T01:56:02.434Z,0
2017-07-04T01:57:04.235Z,0
2017-07-04T01:58:37.459Z,0
2017-07-04T01:59:39.258Z,0
2017-07-04T02:00:40.703Z,0
2017-07-04T02:01:42.540Z,0
2017-07-04T02:02:44.029Z,0
2017-07-04T02:03:46.230Z,0
2017-07-04T02:04:47.673Z,0
2017-07-04T02:05:49.117Z,0
2017-07-04T02:06:50.939Z,0
2017-07-04T02:07:51.714Z,0
2017-07-04T02:08:53.853Z,0
2017-07-04T02:09:56.024Z,0
2017-07-04T02:10:57.825Z,0
2017-07-04T02:11:59.969Z,0
2017-07-04T02:13:01.473Z,0
2017-07-04T02:14:02.603Z,0
2017-07-04T02:15:04.044Z,0
2017-07-04T02:16:05.826Z,0
2017-07-04T02:17:07.991Z,0
2017-07-04T02:18:09.436Z,0
2017-07-04T02:19:11.569Z,0
2017-07-04T02:20:13.013Z,0
2017-07-04T02:21:14.122Z,0
2017-07-04T02:22:15.571Z,0
2017-07-04T02:23:17.039Z,0
2017-07-04T02:24:18.838Z,0
2017-07-04T02:25:20.280Z,0
2017-07-04T02:26:22.079Z,0
2017-07-04T02:27:23.902Z,0
2017-07-04T02:28:25.701Z,0
2017-07-04T02:29:27.499Z,0
2017-07-04T02:30:28.942Z,0
2017-07-04T02:31:30.742Z,0
2017-07-04T02:32:32.873Z,0
2017-07-04T02:33:34.342Z,0
2017-07-04T02:34:35.804Z,0
2017-07-04T02:35:37.248Z,0
2017-07-04T02:36:39.382Z,0
2017-07-04T02:37:41.183Z,0
2017-07-04T02:38:43.317Z,0
2017-07-04T02:39:45.120Z,0
2017-07-04T02:40:47.332Z,0
2017-07-04T02:41:48.776Z,0
2017-07-04T02:42:50.575Z,0
2017-07-04T02:43:52.736Z,0
2017-07-04T02:44:54.539Z,0
2017-07-04T02:45:56.337Z,0
2017-07-04T02:46:58.135Z,0
2017-07-04T02:47:59.601Z,0
2017-07-04T02:49:00.731Z,0
2017-07-04T02:50:02.541Z,0
2017-07-04T02:51:03.989Z,0
2017-07-04T02:52:05.791Z,0
2017-07-04T02:53:07.589Z,0
2017-07-04T02:54:09.723Z,0
2017-07-04T02:55:10.831Z,0
2017-07-04T02:56:12.967Z,0
2017-07-04T02:57:14.078Z,0
2017-07-04T02:58:15.882Z,0
2017-07-04T02:59:17.351Z,0
2017-07-04T03:00:18.123Z,0
2017-07-04T03:01:19.574Z,0
2017-07-04T03:02:21.348Z,0
2017-07-04T03:03:23.149Z,0
2017-07-04T03:04:24.951Z,0
2017-07-04T03:05:26.398Z,0
2017-07-04T03:06:27.842Z,0
2017-07-04T03:07:29.288Z,0
2017-07-04T03:08:31.087Z,0
2017-07-04T03:09:32.867Z,0
2017-07-04T03:10:34.668Z,0
2017-07-04T03:11:36.135Z,0
2017-07-04T03:12:37.935Z,0
2017-07-04T03:13:39.730Z,0
2017-07-04T03:14:41.173Z,0
2017-07-04T03:15:42.971Z,0
2017-07-04T03:16:44.102Z,0
2017-07-04T03:17:45.901Z,0
2017-07-04T03:18:48.038Z,0
2017-07-04T03:19:49.838Z,0
2017-07-04T03:20:51.644Z,0
2017-07-04T03:21:53.775Z,0
2017-07-04T03:22:55.556Z,0
2017-07-04T03:23:57.000Z,0
2017-07-04T03:24:58.452Z,0
2017-07-04T03:26:00.250Z,0
2017-07-04T03:27:01.357Z,0
2017-07-04T03:28:03.492Z,0
2017-07-04T03:29:04.265Z,0
2017-07-04T03:30:06.061Z,0
2017-07-04T03:31:08.197Z,0
2017-07-04T03:32:10.354Z,0
2017-07-04T03:33:12.488Z,0
2017-07-04T03:34:14.623Z,0
2017-07-04T03:35:16.424Z,0
2017-07-04T03:36:18.223Z,0
2017-07-04T03:37:20.001Z,0
2017-07-04T03:38:21.802Z,0
2017-07-04T03:39:23.601Z,0
2017-07-04T03:40:25.733Z,0
2017-07-04T03:41:27.535Z,0
2017-07-04T03:42:29.314Z,0
2017-07-04T03:43:31.112Z,0
2017-07-04T03:44:32.557Z,0
2017-07-04T03:45:34.000Z,0
2017-07-04T03:46:35.803Z,0
2017-07-04T03:47:37.579Z,0
2017-07-04T03:48:39.377Z,0
2017-07-04T03:49:41.513Z,0
2017-07-04T03:50:43.317Z,0
2017-07-04T03:51:45.136Z,0
2017-07-04T03:52:46.577Z,0
2017-07-04T03:53:47.685Z,0
2017-07-04T03:54:49.820Z,0
2017-07-04T03:55:51.286Z,0
2017-07-04T03:56:53.421Z,0
2017-07-04T03:57:55.222Z,0
2017-07-04T03:58:56.693Z,0
2017-07-04T03:59:58.161Z,0
2017-07-04T04:00:59.606Z,0
2017-07-04T04:02:01.073Z,0
2017-07-04T04:03:02.873Z,0
2017-07-04T04:04:05.006Z,0
2017-07-04T04:05:07.139Z,0
2017-07-04T04:06:08.943Z,0
2017-07-04T04:07:10.720Z,0
2017-07-04T04:08:12.858Z,0
2017-07-04T04:09:14.996Z,0
2017-07-04T04:10:16.799Z,0
2017-07-04T04:11:18.930Z,0
2017-07-04T04:12:21.072Z,0
2017-07-04T04:13:23.208Z,0
2017-07-04T04:14:25.348Z,0
2017-07-04T04:15:26.790Z,0
2017-07-04T04:16:28.258Z,0
2017-07-04T04:17:30.431Z,0
2017-07-04T04:18:32.573Z,5
2017-07-04T04:19:34.370Z,5
2017-07-04T04:20:36.506Z,5
2017-07-04T04:21:38.310Z,5
2017-07-04T04:22:40.086Z,5
2017-07-04T04:23:41.897Z,5
2017-07-04T04:24:44.031Z,5
2017-07-04T04:25:45.499Z,5
2017-07-04T04:26:47.304Z,5
2017-07-04T04:27:48.754Z,5
2017-07-04T04:28:50.220Z,5
2017-07-04T04:29:51.718Z,5
2017-07-04T04:30:53.497Z,5
2017-07-04T04:31:54.956Z,22
2017-07-04T04:32:57.091Z,28
2017-07-04T04:33:58.536Z,33
2017-07-04T04:35:00.675Z,33
2017-07-04T04:36:02.454Z,33
2017-07-04T04:37:04.236Z,33
2017-07-04T04:38:06.373Z,33
2017-07-04T04:39:08.177Z,33
2017-07-04T04:40:08.955Z,33
2017-07-04T04:41:10.445Z,33
2017-07-04T04:42:12.249Z,33
2017-07-04T04:43:14.388Z,33
2017-07-04T04:44:16.190Z,33
2017-07-04T04:45:17.971Z,39
2017-07-04T04:46:20.107Z,39
2017-07-04T04:47:21.574Z,39
2017-07-04T04:48:23.021Z,39
2017-07-04T04:49:24.809Z,39
2017-07-04T04:50:26.601Z,39
2017-07-04T04:51:28.735Z,39
2017-07-04T04:52:30.204Z,39
2017-07-04T04:53:32.340Z,39
2017-07-04T04:54:34.478Z,39
2017-07-04T04:55:35.943Z,39
2017-07-04T04:56:37.721Z,39
2017-07-04T04:57:39.522Z,39
2017-07-04T04:58:41.324Z,39
2017-07-04T04:59:43.103Z,39
2017-07-04T05:00:43.880Z,39
2017-07-04T05:01:45.346Z,39
2017-07-04T05:02:46.788Z,39
2017-07-04T05:03:47.897Z,45
2017-07-04T05:04:50.032Z,39
2017-07-04T05:05:51.836Z,45
2017-07-04T05:06:53.637Z,39
2017-07-04T05:07:55.776Z,39
2017-07-04T05:08:57.912Z,39
2017-07-04T05:09:59.354Z,39
2017-07-04T05:11:01.154Z,39
2017-07-04T05:12:02.957Z,39
2017-07-04T05:13:04.422Z,39
2017-07-04T05:14:06.224Z,39
2017-07-04T05:15:07.672Z,39
2017-07-04T05:16:09.117Z,39
2017-07-04T05:17:10.561Z,39
2017-07-04T05:18:12.031Z,45
2017-07-04T05:19:13.831Z,39
2017-07-04T05:20:15.637Z,45
2017-07-04T05:21:17.445Z,45
2017-07-04T05:22:19.246Z,39
2017-07-04T05:23:21.384Z,45
2017-07-04T05:24:23.189Z,45
2017-07-04T05:25:25.326Z,39
2017-07-04T05:26:27.463Z,39
2017-07-04T05:27:28.574Z,39
2017-07-04T05:28:30.374Z,28
2017-07-04T05:29:31.816Z,28
2017-07-04T05:30:33.262Z,22
2017-07-04T05:31:34.731Z,28
2017-07-04T05:32:36.512Z,22
2017-07-04T05:33:38.648Z,22
2017-07-04T05:34:40.122Z,22
2017-07-04T05:35:41.923Z,22
2017-07-04T05:36:43.366Z,28
2017-07-04T05:37:45.169Z,16
2017-07-04T05:38:46.952Z,16
2017-07-04T05:39:48.750Z,16
2017-07-04T05:40:50.197Z,16
2017-07-04T05:41:52.001Z,16
2017-07-04T05:42:54.143Z,16
2017-07-04T05:43:55.587Z,11
2017-07-04T05:44:57.394Z,16
2017-07-04T05:45:59.196Z,16
2017-07-04T05:47:00.643Z,16
2017-07-04T05:48:02.445Z,16
2017-07-04T05:49:03.913Z,11
2017-07-04T05:50:05.385Z,11
2017-07-04T05:51:07.163Z,11
2017-07-04T05:52:08.963Z,11
2017-07-04T05:53:11.100Z,11
2017-07-04T05:54:12.907Z,11
2017-07-04T05:55:14.713Z,11
2017-07-04T05:56:16.491Z,22
2017-07-04T05:57:18.296Z,11
2017-07-04T05:58:20.079Z,11
2017-07-04T05:59:21.893Z,16
2017-07-04T06:00:23.004Z,11
2017-07-04T06:01:24.117Z,11
2017-07-04T06:02:25.897Z,11
2017-07-04T06:03:28.037Z,11
2017-07-04T06:04:29.504Z,11
2017-07-04T06:05:31.307Z,11
2017-07-04T06:06:32.441Z,11
2017-07-04T06:07:34.242Z,11
2017-07-04T06:08:35.713Z,11
2017-07-04T06:09:37.491Z,11
2017-07-04T06:10:39.300Z,11
2017-07-04T06:11:40.768Z,11
2017-07-04T06:12:42.237Z,16
2017-07-04T06:13:44.373Z,22
2017-07-04T06:14:46.174Z,11
2017-07-04T06:15:47.978Z,11
2017-07-04T06:16:49.446Z,11
2017-07-04T06:17:51.590Z,11
2017-07-04T06:18:53.373Z,11
2017-07-04T06:19:55.515Z,11
2017-07-04T06:20:56.962Z,11
2017-07-04T06:21:58.430Z,11
2017-07-04T06:23:00.231Z,22
2017-07-04T06:24:02.036Z,16
2017-07-04T06:25:03.482Z,16
2017-07-04T06:26:04.590Z,16
2017-07-04T06:27:06.729Z,16
2017-07-04T06:28:08.175Z,16
2017-07-04T06:29:09.990Z,16
2017-07-04T06:30:11.787Z,22
2017-07-04T06:31:13.574Z,28
2017-07-04T06:32:15.714Z,28
2017-07-04T06:33:17.492Z,33
2017-07-04T06:34:19.298Z,33
2017-07-04T06:35:21.099Z,33
2017-07-04T06:36:22.901Z,28
2017-07-04T06:37:24.703Z,22
2017-07-04T06:38:26.508Z,28
2017-07-04T06:39:28.308Z,22
2017-07-04T06:40:29.450Z,22
2017-07-04T06:41:31.252Z,28
2017-07-04T06:42:32.724Z,28
2017-07-04T06:43:34.196Z,28
2017-07-04T06:44:35.645Z,28
2017-07-04T06:45:36.781Z,28
2017-07-04T06:46:38.224Z,28
2017-07-04T06:47:40.023Z,28
2017-07-04T06:48:42.158Z,22
2017-07-04T06:49:43.628Z,22
2017-07-04T06:50:44.776Z,22
2017-07-04T06:51:46.254Z,22
2017-07-04T06:52:48.059Z,22
2017-07-04T06:53:49.859Z,22
2017-07-04T06:54:51.303Z,22
2017-07-04T06:55:53.441Z,22
2017-07-04T06:56:54.886Z,22
2017-07-04T06:57:57.023Z,22
2017-07-04T06:58:58.825Z,22
2017-07-04T07:00:00.272Z,22
2017-07-04T07:01:01.381Z,22
2017-07-04T07:02:03.516Z,22
2017-07-04T07:03:04.627Z,22
2017-07-04T07:04:06.765Z,22
2017-07-04T07:05:08.568Z,22
2017-07-04T07:06:10.033Z,22
2017-07-04T07:07:11.501Z,22
2017-07-04T07:08:13.637Z,16
2017-07-04T07:09:15.209Z,16
2017-07-04T07:10:17.008Z,16
2017-07-04T07:11:19.146Z,16
2017-07-04T07:12:21.282Z,16
2017-07-04T07:13:22.726Z,16
2017-07-04T07:14:24.862Z,16
2017-07-04T07:15:27.001Z,16
2017-07-04T07:16:29.135Z,16
2017-07-04T07:17:31.273Z,16
2017-07-04T07:18:33.079Z,16
2017-07-04T07:19:34.880Z,16
2017-07-04T07:20:36.680Z,16
2017-07-04T07:21:37.460Z,16
2017-07-04T07:22:39.598Z,16
2017-07-04T07:23:41.399Z,16
2017-07-04T07:24:42.873Z,16
2017-07-04T07:25:44.333Z,16
2017-07-04T07:26:46.469Z,16
2017-07-04T07:27:48.272Z,16
2017-07-04T07:28:50.410Z,16
2017-07-04T07:29:52.190Z,16
2017-07-04T07:30:53.635Z,16
2017-07-04T07:31:55.082Z,16
2017-07-04T07:32:57.220Z,16
2017-07-04T07:33:58.329Z,16
2017-07-04T07:35:00.132Z,16
2017-07-04T07:36:01.912Z,16
2017-07-04T07:37:04.050Z,16
2017-07-04T07:38:05.854Z,16
2017-07-04T07:39:07.015Z,16
2017-07-04T07:40:08.477Z,16
2017-07-04T07:41:10.615Z,16
2017-07-04T07:42:12.396Z,16
2017-07-04T07:43:14.175Z,16
2017-07-04T07:44:15.980Z,16
2017-07-04T07:45:17.091Z,16
2017-07-04T07:46:19.232Z,16
2017-07-04T07:47:21.034Z,16
2017-07-04T07:48:22.837Z,16
2017-07-04T07:49:23.969Z,16
2017-07-04T07:50:26.108Z,16
2017-07-04T07:51:28.245Z,16
2017-07-04T07:52:29.751Z,16
2017-07-04T07:53:31.887Z,16
2017-07-04T07:54:33.693Z,16
2017-07-04T07:55:35.880Z,16
2017-07-04T07:56:36.992Z,16
2017-07-04T07:57:38.797Z,16
2017-07-04T07:58:40.602Z,16
2017-07-04T07:59:42.740Z,16
2017-07-04T08:00:44.544Z,16
2017-07-04T08:01:46.352Z,16
2017-07-04T08:02:48.486Z,16
2017-07-04T08:03:50.625Z,16
2017-07-04T08:04:52.425Z,11
2017-07-04T08:05:54.227Z,16
2017-07-04T08:06:55.672Z,16
2017-07-04T08:07:57.475Z,16
2017-07-04T08:08:58.942Z,16
2017-07-04T08:10:00.720Z,16
2017-07-04T08:11:02.858Z,16
2017-07-04T08:12:03.973Z,16
2017-07-04T08:13:05.414Z,16
2017-07-04T08:14:07.550Z,16
2017-07-04T08:15:09.329Z,16
2017-07-04T08:16:11.467Z,16
2017-07-04T08:17:12.907Z,16
2017-07-04T08:18:15.047Z,16
2017-07-04T08:19:17.184Z,16
2017-07-04T08:20:19.321Z,16
2017-07-04T08:21:21.127Z,16
2017-07-04T08:22:22.578Z,16
2017-07-04T08:23:24.044Z,16
2017-07-04T08:24:25.847Z,16
2017-07-04T08:25:27.985Z,16
2017-07-04T08:26:30.121Z,16
2017-07-04T08:27:31.564Z,16
2017-07-04T08:28:33.702Z,16
2017-07-04T08:29:35.840Z,16
2017-07-04T08:30:37.643Z,16
2017-07-04T08:31:39.088Z,16
2017-07-04T08:32:41.227Z,16
2017-07-04T08:33:42.671Z,16
2017-07-04T08:34:43.781Z,22
2017-07-04T08:35:45.584Z,22
2017-07-04T08:36:46.696Z,22
2017-07-04T08:37:48.138Z,22
2017-07-04T08:38:49.250Z,16
2017-07-04T08:39:51.059Z,16
2017-07-04T08:40:52.860Z,16
2017-07-04T08:41:55.000Z,16
2017-07-04T08:42:57.133Z,16
2017-07-04T08:43:58.612Z,16
2017-07-04T08:45:00.404Z,16
2017-07-04T08:46:01.851Z,16
2017-07-04T08:47:03.993Z,16
2017-07-04T08:48:05.794Z,22
2017-07-04T08:49:07.258Z,16
2017-07-04T08:50:09.060Z,16
2017-07-04T08:51:10.865Z,16
2017-07-04T08:52:13.009Z,22
2017-07-04T08:53:14.123Z,22
2017-07-04T08:54:15.591Z,16
2017-07-04T08:55:16.703Z,11
2017-07-04T08:56:18.843Z,16
2017-07-04T08:57:19.977Z,16
2017-07-04T08:58:21.783Z,16
2017-07-04T08:59:23.921Z,22
2017-07-04T09:00:25.720Z,22
2017-07-04T09:01:26.858Z,22
2017-07-04T09:02:28.993Z,22
2017-07-04T09:03:31.128Z,22
2017-07-04T09:04:33.266Z,16
2017-07-04T09:05:34.733Z,16
2017-07-04T09:06:36.868Z,16
2017-07-04T09:07:38.052Z,16
2017-07-04T09:08:40.190Z,16
2017-07-04T09:09:41.993Z,16
2017-07-04T09:10:43.461Z,16
2017-07-04T09:11:44.572Z,22
2017-07-04T09:12:46.356Z,16
2017-07-04T09:13:47.826Z,16
2017-07-04T09:14:49.336Z,16
2017-07-04T09:15:51.467Z,16
2017-07-04T09:16:53.609Z,16
2017-07-04T09:17:55.418Z,16
2017-07-04T09:18:56.882Z,16
2017-07-04T09:19:58.686Z,16
2017-07-04T09:21:00.465Z,16
2017-07-04T09:22:02.247Z,22
2017-07-04T09:23:04.047Z,22
2017-07-04T09:24:06.183Z,22
2017-07-04T09:25:07.634Z,22
2017-07-04T09:26:09.101Z,22
2017-07-04T09:27:10.901Z,22
2017-07-04T09:28:12.351Z,22
2017-07-04T09:29:14.156Z,16
2017-07-04T09:30:15.954Z,16
2017-07-04T09:31:17.762Z,16
2017-07-04T09:32:19.563Z,16
2017-07-04T09:33:21.700Z,22
2017-07-04T09:34:23.144Z,22
2017-07-04T09:35:24.613Z,16
2017-07-04T09:36:26.419Z,16
2017-07-04T09:37:28.220Z,16
2017-07-04T09:38:30.020Z,16
2017-07-04T09:39:31.824Z,16
2017-07-04T09:40:32.955Z,16
2017-07-04T09:41:35.090Z,16
2017-07-04T09:42:36.898Z,16
2017-07-04T09:43:38.695Z,16
2017-07-04T09:44:40.836Z,11
2017-07-04T09:45:42.611Z,16
2017-07-04T09:46:43.720Z,16
2017-07-04T09:47:45.166Z,16
2017-07-04T09:48:46.646Z,16
2017-07-04T09:49:48.447Z,16
2017-07-04T09:50:49.890Z,22
2017-07-04T09:51:51.362Z,22
2017-07-04T09:52:53.165Z,22
2017-07-04T09:53:54.967Z,16
2017-07-04T09:54:56.439Z,16
2017-07-04T09:55:57.884Z,16
2017-07-04T09:56:59.323Z,16
2017-07-04T09:58:00.440Z,11
2017-07-04T09:59:02.280Z,16
2017-07-04T10:00:03.744Z,16
2017-07-04T10:01:05.190Z,11
2017-07-04T10:02:06.660Z,11
2017-07-04T10:03:08.462Z,11
2017-07-04T10:04:10.268Z,11
2017-07-04T10:05:12.076Z,16
2017-07-04T10:06:14.213Z,16
2017-07-04T10:07:15.661Z,16
2017-07-04T10:08:17.801Z,16
2017-07-04T10:09:19.604Z,16
2017-07-04T10:10:21.045Z,16
2017-07-04T10:11:23.183Z,16
2017-07-04T10:12:25.321Z,16
2017-07-04T10:13:27.130Z,16
2017-07-04T10:14:28.605Z,16
2017-07-04T10:15:30.055Z,16
2017-07-04T10:16:31.858Z,16
2017-07-04T10:17:33.637Z,16
2017-07-04T10:18:35.085Z,16
2017-07-04T10:19:36.531Z,22
2017-07-04T10:20:38.671Z,22
2017-07-04T10:21:39.804Z,22
2017-07-04T10:22:41.609Z,16
2017-07-04T10:23:43.077Z,16
2017-07-04T10:24:44.858Z,16
2017-07-04T10:25:46.662Z,11
2017-07-04T10:26:48.114Z,11
2017-07-04T10:27:49.562Z,16
2017-07-04T10:28:51.700Z,16
2017-07-04T10:29:53.173Z,16
2017-07-04T10:30:54.645Z,16
2017-07-04T10:31:56.447Z,16
2017-07-04T10:32:58.588Z,16
2017-07-04T10:34:00.386Z,11
2017-07-04T10:35:02.524Z,16
2017-07-04T10:36:03.975Z,16
2017-07-04T10:37:05.457Z,16
2017-07-04T10:38:06.906Z,16
2017-07-04T10:39:08.039Z,22
2017-07-04T10:40:10.174Z,22
2017-07-04T10:41:11.973Z,22
2017-07-04T10:42:13.756Z,22
2017-07-04T10:43:15.894Z,22
2017-07-04T10:44:17.004Z,16
2017-07-04T10:45:19.143Z,16
2017-07-04T10:46:20.591Z,16
2017-07-04T10:47:22.397Z,16
2017-07-04T10:48:24.535Z,16
2017-07-04T10:49:26.339Z,16
2017-07-04T10:50:28.478Z,16
2017-07-04T10:51:30.276Z,16
2017-07-04T10:52:31.746Z,16
2017-07-04T10:53:33.215Z,16
2017-07-04T10:54:35.349Z,16
2017-07-04T10:55:36.798Z,16
2017-07-04T10:56:38.248Z,16
2017-07-04T10:57:40.393Z,22
2017-07-04T10:58:42.204Z,22
2017-07-04T10:59:43.994Z,16
2017-07-04T11:00:46.128Z,16
2017-07-04T11:01:48.263Z,22
2017-07-04T11:02:50.065Z,16
2017-07-04T11:03:51.868Z,16
2017-07-04T11:04:54.004Z,22
2017-07-04T11:05:55.672Z,22
2017-07-04T11:06:57.131Z,22
2017-07-04T11:07:59.271Z,22
2017-07-04T11:09:01.074Z,16
2017-07-04T11:10:02.857Z,22
2017-07-04T11:11:04.638Z,16
2017-07-04T11:12:06.441Z,16
2017-07-04T11:13:08.255Z,16
2017-07-04T11:14:09.704Z,22
2017-07-04T11:15:11.147Z,22
2017-07-04T11:16:12.953Z,22
2017-07-04T11:17:14.448Z,22
2017-07-04T11:18:15.896Z,22
2017-07-04T11:19:17.700Z,16
2017-07-04T11:20:19.838Z,22
2017-07-04T11:21:21.617Z,16
2017-07-04T11:22:23.403Z,11
2017-07-04T11:23:25.208Z,11
2017-07-04T11:24:27.008Z,11
2017-07-04T11:25:28.479Z,11
2017-07-04T11:26:29.588Z,16
2017-07-04T11:27:31.395Z,16
2017-07-04T11:28:33.534Z,16
2017-07-04T11:29:34.980Z,22
2017-07-04T11:30:36.095Z,16
2017-07-04T11:31:37.897Z,16
2017-07-04T11:32:39.677Z,22
2017-07-04T11:33:40.790Z,22
2017-07-04T11:34:42.235Z,22
2017-07-04T11:35:44.043Z,22
2017-07-04T11:36:46.178Z,22
2017-07-04T11:37:48.316Z,16
2017-07-04T11:38:50.096Z,22
2017-07-04T11:39:52.238Z,22
2017-07-04T11:40:54.043Z,22
2017-07-04T11:41:55.512Z,22
2017-07-04T11:42:57.648Z,22
2017-07-04T11:43:59.090Z,22
2017-07-04T11:45:00.909Z,22
2017-07-04T11:46:03.033Z,22
2017-07-04T11:47:04.813Z,16
2017-07-04T11:48:05.943Z,22
2017-07-04T11:49:07.753Z,16
2017-07-04T11:50:08.864Z,16
2017-07-04T11:51:10.668Z,16
2017-07-04T11:52:12.805Z,11
2017-07-04T11:53:14.253Z,11
2017-07-04T11:54:16.060Z,11
2017-07-04T11:55:17.166Z,11
2017-07-04T11:56:19.304Z,11
2017-07-04T11:57:20.752Z,11
2017-07-04T11:58:22.200Z,11
2017-07-04T11:59:23.650Z,11
2017-07-04T12:00:25.788Z,11
2017-07-04T12:01:27.594Z,16
2017-07-04T12:02:29.038Z,22
2017-07-04T12:03:30.507Z,16
2017-07-04T12:04:31.955Z,16
2017-07-04T12:05:33.079Z,16
2017-07-04T12:06:34.526Z,16
2017-07-04T12:07:36.305Z,16
2017-07-04T12:08:37.080Z,16
2017-07-04T12:09:38.551Z,22
2017-07-04T12:10:40.018Z,22
2017-07-04T12:11:41.802Z,16
2017-07-04T12:12:43.582Z,16
2017-07-04T12:13:45.718Z,16
2017-07-04T12:14:47.503Z,16
2017-07-04T12:15:48.969Z,16
2017-07-04T12:16:50.769Z,16
2017-07-04T12:17:52.550Z,16
2017-07-04T12:18:54.688Z,16
2017-07-04T12:19:56.160Z,16
2017-07-04T12:20:57.602Z,11
2017-07-04T12:21:59.411Z,11
2017-07-04T12:23:00.856Z,16
2017-07-04T12:24:02.659Z,16
2017-07-04T12:25:04.799Z,16
2017-07-04T12:26:06.585Z,11
2017-07-04T12:27:08.056Z,11
2017-07-04T12:28:09.522Z,11
2017-07-04T12:29:11.324Z,16
2017-07-04T12:30:12.773Z,16
2017-07-04T12:31:14.241Z,16
2017-07-04T12:32:15.737Z,16
2017-07-04T12:33:17.621Z,16
2017-07-04T12:34:19.402Z,16
2017-07-04T12:35:21.537Z,16
2017-07-04T12:36:23.681Z,16
2017-07-04T12:37:25.820Z,16
2017-07-04T12:38:28.014Z,16
2017-07-04T12:39:29.456Z,16
2017-07-04T12:40:31.592Z,16
2017-07-04T12:41:33.727Z,16
2017-07-04T12:42:35.171Z,16
2017-07-04T12:43:37.311Z,22
2017-07-04T12:44:38.780Z,16
2017-07-04T12:45:40.247Z,22
2017-07-04T12:46:42.049Z,16
2017-07-04T12:47:43.850Z,11
2017-07-04T12:48:45.657Z,11
2017-07-04T12:49:47.793Z,11
2017-07-04T12:50:49.573Z,11
2017-07-04T12:51:51.377Z,11
2017-07-04T12:52:52.497Z,11
2017-07-04T12:53:53.939Z,11
2017-07-04T12:54:55.742Z,16
2017-07-04T12:55:57.185Z,11
2017-07-04T12:56:58.965Z,11
2017-07-04T12:58:00.749Z,16
2017-07-04T12:59:02.550Z,16
2017-07-04T13:00:04.358Z,16
2017-07-04T13:01:06.491Z,22
2017-07-04T13:02:08.632Z,22
2017-07-04T13:03:10.440Z,16
2017-07-04T13:04:11.552Z,16
2017-07-04T13:05:13.693Z,16
2017-07-04T13:06:15.474Z,16
2017-07-04T13:07:16.921Z,16
2017-07-04T13:08:18.388Z,16
2017-07-04T13:09:20.169Z,16
2017-07-04T13:10:21.615Z,22
2017-07-04T13:11:23.081Z,16
2017-07-04T13:12:25.219Z,16
2017-07-04T13:13:27.001Z,16
2017-07-04T13:14:28.856Z,16
2017-07-04T13:15:30.299Z,11
2017-07-04T13:16:32.102Z,16
2017-07-04T13:17:33.550Z,16
2017-07-04T13:18:35.020Z,11
2017-07-04T13:19:36.802Z,11
2017-07-04T13:20:38.582Z,16
2017-07-04T13:21:40.387Z,11
2017-07-04T13:22:42.192Z,11
2017-07-04T13:23:43.321Z,11
2017-07-04T13:24:45.126Z,16
2017-07-04T13:25:47.263Z,11
2017-07-04T13:26:49.399Z,16
2017-07-04T13:27:51.208Z,16
2017-07-04T13:28:53.344Z,16
2017-07-04T13:29:55.478Z,16
2017-07-04T13:30:57.283Z,16
2017-07-04T13:31:58.061Z,16
2017-07-04T13:33:00.201Z,16
2017-07-04T13:34:01.979Z,16
2017-07-04T13:35:03.127Z,16
2017-07-04T13:36:05.263Z,16
2017-07-04T13:37:07.068Z,22
2017-07-04T13:38:08.870Z,22
2017-07-04T13:39:10.677Z,22
2017-07-04T13:40:12.527Z,22
2017-07-04T13:41:13.995Z,22
2017-07-04T13:42:15.774Z,22
2017-07-04T13:43:16.884Z,22
2017-07-04T13:44:18.351Z,16
2017-07-04T13:45:20.153Z,16
2017-07-04T13:46:21.955Z,22
2017-07-04T13:47:23.759Z,22
2017-07-04T13:48:25.897Z,22
2017-07-04T13:49:27.703Z,22
2017-07-04T13:50:29.850Z,22
2017-07-04T13:51:31.643Z,22
2017-07-04T13:52:33.425Z,22
2017-07-04T13:53:35.231Z,22
2017-07-04T13:54:37.012Z,22
2017-07-04T13:55:38.456Z,16
2017-07-04T13:56:40.600Z,16
2017-07-04T13:57:42.379Z,11
2017-07-04T13:58:44.517Z,11
2017-07-04T13:59:46.659Z,11
2017-07-04T14:00:48.465Z,11
2017-07-04T14:01:49.910Z,11
2017-07-04T14:02:51.717Z,11
2017-07-04T14:03:53.852Z,16
2017-07-04T14:04:55.305Z,16
2017-07-04T14:05:57.088Z,16
2017-07-04T14:06:58.890Z,16
2017-07-04T14:08:01.028Z,16
2017-07-04T14:09:02.480Z,11
2017-07-04T14:10:04.284Z,11
2017-07-04T14:11:06.084Z,16
2017-07-04T14:12:07.218Z,22
2017-07-04T14:13:09.023Z,22
2017-07-04T14:14:10.806Z,16
2017-07-04T14:15:12.604Z,16
2017-07-04T14:16:14.055Z,16
2017-07-04T14:17:15.169Z,16
2017-07-04T14:18:16.280Z,16
2017-07-04T14:19:17.753Z,16
2017-07-04T14:20:19.193Z,16
2017-07-04T14:21:20.640Z,16
2017-07-04T14:22:22.435Z,16
2017-07-04T14:23:23.885Z,16
2017-07-04T14:24:26.023Z,16
2017-07-04T14:25:27.131Z,16
2017-07-04T14:26:29.323Z,16
2017-07-04T14:27:31.460Z,11
2017-07-04T14:28:33.595Z,11
2017-07-04T14:29:35.734Z,11
2017-07-04T14:30:37.870Z,11
2017-07-04T14:31:39.673Z,11
2017-07-04T14:32:41.810Z,11
2017-07-04T14:33:43.613Z,11
2017-07-04T14:34:45.057Z,11
2017-07-04T14:35:46.862Z,11
2017-07-04T14:36:48.667Z,16
2017-07-04T14:37:50.136Z,16
2017-07-04T14:38:50.892Z,16
2017-07-04T14:39:52.696Z,16
2017-07-04T14:40:54.838Z,16
2017-07-04T14:41:56.643Z,16
2017-07-04T14:42:58.090Z,16
2017-07-04T14:43:59.558Z,16
2017-07-04T14:45:01.361Z,16
2017-07-04T14:46:02.807Z,16
2017-07-04T14:47:04.277Z,16
2017-07-04T14:48:06.419Z,16
2017-07-04T14:49:08.220Z,16
2017-07-04T14:50:10.023Z,16